createdAt,value
2018-02-25T00:02:25.503Z,99.90
2018-02-25T00:04:52.967Z,99.90
2018-02-25T00:07:20.440Z,99.90
2018-02-25T00:09:48.629Z,99.90
2018-02-25T00:12:16.891Z,99.90
2018-02-25T00:14:44.404Z,99.90
2018-02-25T00:17:11.877Z,99.90
2018-02-25T00:19:39.385Z,99.90
2018-02-25T00:22:07.642Z,99.90
2018-02-25T00:24:35.142Z,99.90
2018-02-25T00:27:02.618Z,99.90
2018-02-25T00:29:30.081Z,99.90
2018-02-25T00:31:57.659Z,99.90
2018-02-25T00:34:25.129Z,99.90
2018-02-25T00:36:52.619Z,99.90
2018-02-25T00:39:20.854Z,99.90
2018-02-25T00:41:48.356Z,99.90
2018-02-25T00:44:16.759Z,99.90
2018-02-25T00:46:44.270Z,99.90
2018-02-25T00:49:11.735Z,99.90
2018-02-25T00:51:39.230Z,99.90
2018-02-25T00:54:06.722Z,99.90
2018-02-25T00:56:34.211Z,99.90
2018-02-25T00:59:01.687Z,99.90
2018-02-25T01:01:29.924Z,99.90
2018-02-25T01:03:57.387Z,99.90
2018-02-25T01:06:24.868Z,99.90
2018-02-25T01:08:52.343Z,99.90
2018-02-25T01:11:20.614Z,99.90
2018-02-25T01:13:48.888Z,99.90
2018-02-25T01:16:16.387Z,99.90
2018-02-25T01:18:43.902Z,99.90
2018-02-25T01:21:11.775Z,99.90
2018-02-25T01:23:40.066Z,99.90
2018-02-25T01:26:07.545Z,99.90
2018-02-25T01:28:35.025Z,99.90
2018-02-25T01:31:03.228Z,99.90
2018-02-25T01:33:30.761Z,99.90
2018-02-25T01:35:58.243Z,99.90
2018-02-25T01:38:25.866Z,99.90
2018-02-25T01:40:53.312Z,99.90
2018-02-25T01:43:20.804Z,99.90
2018-02-25T01:45:48.298Z,99.90
2018-02-25T01:48:16.568Z,99.90
2018-02-25T01:50:55.891Z,99.90
2018-02-25T01:53:23.366Z,99.90
2018-02-25T01:55:51.625Z,99.90
2018-02-25T01:58:19.116Z,99.90
2018-02-25T02:00:47.382Z,99.90
2018-02-25T02:03:15.642Z,99.90
2018-02-25T02:05:43.135Z,99.90
2018-02-25T02:08:11.382Z,99.90
2018-02-25T02:10:38.931Z,99.90
2018-02-25T02:13:06.406Z,99.90
2018-02-25T02:15:33.917Z,99.90
2018-02-25T02:18:01.423Z,99.90
2018-02-25T02:20:28.925Z,99.90
2018-02-25T02:22:56.396Z,99.90
2018-02-25T02:25:23.886Z,99.90
2018-02-25T02:27:51.382Z,99.90
2018-02-25T02:30:19.642Z,99.90
2018-02-25T02:32:47.184Z,99.90
2018-02-25T02:35:14.678Z,99.90
2018-02-25T02:37:42.971Z,99.90
2018-02-25T02:40:10.422Z,99.90
2018-02-25T02:42:37.908Z,99.90
2018-02-25T02:45:05.383Z,99.90
2018-02-25T02:47:32.861Z,99.90
2018-02-25T02:50:00.376Z,99.90
2018-02-25T02:52:27.846Z,99.90
2018-02-25T02:54:55.338Z,99.90
2018-02-25T02:57:22.814Z,99.90
2018-02-25T02:59:50.289Z,99.90
2018-02-25T03:02:17.773Z,99.90
2018-02-25T03:04:45.262Z,99.90
2018-02-25T03:07:12.728Z,99.90
2018-02-25T03:09:40.204Z,99.90
2018-02-25T03:12:08.458Z,99.90
2018-02-25T03:14:35.940Z,99.90
2018-02-25T03:17:04.161Z,99.90
2018-02-25T03:19:31.647Z,99.90
2018-02-25T03:21:59.161Z,99.90
2018-02-25T03:24:26.661Z,99.90
2018-02-25T03:26:54.122Z,99.90
2018-02-25T03:29:21.603Z,99.90
2018-02-25T03:31:49.851Z,99.90
2018-02-25T03:34:17.382Z,99.90
2018-02-25T03:36:44.848Z,99.90
2018-02-25T03:39:12.351Z,99.90
2018-02-25T03:41:39.806Z,99.90
2018-02-25T03:44:07.287Z,99.90
2018-02-25T03:46:35.515Z,99.90
2018-02-25T03:49:03.012Z,99.90
2018-02-25T03:51:31.268Z,99.90
2018-02-25T03:53:58.755Z,99.90
2018-02-25T03:56:26.997Z,99.90
2018-02-25T03:58:54.480Z,99.90
2018-02-25T04:01:22.715Z,99.90
2018-02-25T04:03:50.214Z,99.90
2018-02-25T04:06:18.446Z,99.90
2018-02-25T04:08:46.010Z,99.90
2018-02-25T04:11:13.480Z,99.90
2018-02-25T04:13:40.945Z,99.90
2018-02-25T04:16:08.423Z,99.90
2018-02-25T04:18:36.672Z,99.90
2018-02-25T04:21:04.584Z,99.90
2018-02-25T04:23:32.816Z,99.90
2018-02-25T04:26:00.305Z,99.90
2018-02-25T04:28:28.534Z,99.90
2018-02-25T04:30:56.020Z,99.90
2018-02-25T04:33:23.508Z,99.90
2018-02-25T04:35:51.742Z,99.90
2018-02-25T04:38:19.206Z,99.90
2018-02-25T04:40:46.700Z,99.90
2018-02-25T04:43:14.194Z,99.90
2018-02-25T04:45:41.658Z,99.90
2018-02-25T04:48:09.144Z,99.90
2018-02-25T04:50:37.517Z,99.90
2018-02-25T04:53:05.039Z,99.90
2018-02-25T04:55:32.537Z,99.90
2018-02-25T04:58:00.025Z,99.90
2018-02-25T05:00:28.272Z,99.90
2018-02-25T05:02:57.493Z,99.90
2018-02-25T05:05:24.938Z,99.90
2018-02-25T05:07:52.435Z,99.90
2018-02-25T05:10:19.890Z,99.90
2018-02-25T05:12:47.382Z,99.90
2018-02-25T05:15:14.854Z,99.90
2018-02-25T05:17:42.333Z,99.90
2018-02-25T05:20:09.792Z,99.90
2018-02-25T05:22:37.278Z,99.90
2018-02-25T05:25:04.764Z,99.90
2018-02-25T05:27:32.251Z,99.90
2018-02-25T05:29:59.731Z,99.90
2018-02-25T05:32:27.975Z,99.90
2018-02-25T05:34:55.434Z,99.90
2018-02-25T05:37:23.404Z,99.90
2018-02-25T05:39:50.874Z,99.90
2018-02-25T05:42:18.350Z,99.90
2018-02-25T05:44:45.847Z,99.90
2018-02-25T05:47:13.306Z,99.90
2018-02-25T05:49:40.778Z,99.90
2018-02-25T05:52:08.267Z,99.90
2018-02-25T05:54:35.738Z,99.90
2018-02-25T05:57:03.208Z,99.90
2018-02-25T05:59:31.453Z,99.90
2018-02-25T06:01:59.697Z,99.90
2018-02-25T06:04:27.185Z,99.90
2018-02-25T06:06:54.662Z,99.90
2018-02-25T06:09:22.186Z,99.90
2018-02-25T06:11:49.659Z,99.90
2018-02-25T06:14:17.184Z,99.90
2018-02-25T06:16:44.647Z,99.90
2018-02-25T06:19:12.107Z,99.90
2018-02-25T06:21:39.619Z,99.90
2018-02-25T06:24:07.881Z,99.90
2018-02-25T06:26:35.377Z,99.90
2018-02-25T06:29:02.888Z,99.90
2018-02-25T06:31:30.350Z,99.90
2018-02-25T06:33:57.854Z,99.90
2018-02-25T06:36:26.099Z,99.90
2018-02-25T06:38:53.579Z,99.90
2018-02-25T06:41:21.836Z,99.90
2018-02-25T06:43:49.315Z,99.90
2018-02-25T06:46:17.566Z,99.90
2018-02-25T06:48:45.081Z,99.90
2018-02-25T06:51:12.571Z,99.90
2018-02-25T06:53:40.059Z,99.90
2018-02-25T06:56:07.534Z,99.90
2018-02-25T06:58:35.779Z,99.90
2018-02-25T07:01:03.718Z,99.90
2018-02-25T07:03:31.195Z,99.90
2018-02-25T07:05:58.667Z,99.90
2018-02-25T07:08:26.179Z,99.90
2018-02-25T07:10:53.666Z,99.90
2018-02-25T07:13:21.166Z,99.90
2018-02-25T07:15:49.399Z,99.90
2018-02-25T07:18:16.887Z,99.90
2018-02-25T07:20:44.362Z,99.90
2018-02-25T07:23:12.626Z,99.90
2018-02-25T07:25:40.106Z,99.90
2018-02-25T07:28:08.346Z,99.90
2018-02-25T07:30:35.837Z,99.90
2018-02-25T07:33:04.116Z,99.90
2018-02-25T07:35:31.570Z,99.90
2018-02-25T07:37:59.838Z,99.90
2018-02-25T07:40:28.086Z,99.90
2018-02-25T07:42:55.571Z,99.90
2018-02-25T07:45:23.814Z,99.90
2018-02-25T07:47:51.280Z,99.90
2018-02-25T07:50:18.761Z,99.90
2018-02-25T07:52:46.233Z,99.90
2018-02-25T07:55:14.496Z,99.50
2018-02-25T07:57:41.981Z,99.20
2018-02-25T08:00:09.490Z,95.30
2018-02-25T08:02:36.983Z,91.10
2018-02-25T08:05:05.218Z,81.30
2018-02-25T08:07:32.802Z,81.30
2018-02-25T08:10:00.359Z,76.00
2018-02-25T08:12:27.945Z,70.70
2018-02-25T08:14:56.259Z,63.00
2018-02-25T08:17:23.832Z,62.90
2018-02-25T08:19:51.315Z,58.10
2018-02-25T08:22:18.795Z,56.90
2018-02-25T08:24:46.280Z,55.80
2018-02-25T08:27:13.826Z,54.50
2018-02-25T08:29:41.349Z,51.10
2018-02-25T08:32:08.852Z,47.60
2018-02-25T08:34:36.336Z,45.50
2018-02-25T08:37:03.838Z,46.90
2018-02-25T08:39:31.328Z,47.20
2018-02-25T08:41:58.858Z,48.20
2018-02-25T08:44:26.346Z,47.60
2018-02-25T08:46:53.825Z,48.30
2018-02-25T08:49:22.138Z,46.70
2018-02-25T08:51:49.653Z,44.70
2018-02-25T08:54:17.118Z,44.60
2018-02-25T08:56:44.607Z,43.60
2018-02-25T08:59:12.074Z,44.10
2018-02-25T09:01:39.569Z,43.90
2018-02-25T09:04:07.822Z,42.70
2018-02-25T09:06:35.296Z,42.60
2018-02-25T09:09:03.631Z,43.00
2018-02-25T09:11:31.087Z,42.90
2018-02-25T09:13:58.577Z,43.10
2018-02-25T09:16:26.038Z,42.90
2018-02-25T09:18:53.556Z,42.30
2018-02-25T09:21:21.059Z,42.70
2018-02-25T09:23:48.526Z,40.40
2018-02-25T09:26:16.773Z,39.60
2018-02-25T09:28:44.255Z,39.60
2018-02-25T09:31:12.519Z,39.90
2018-02-25T09:33:40.039Z,39.80
2018-02-25T09:36:07.513Z,38.80
2018-02-25T09:38:34.990Z,38.10
2018-02-25T09:41:02.492Z,36.90
2018-02-25T09:43:30.015Z,36.50
2018-02-25T09:45:57.460Z,36.60
2018-02-25T09:48:25.368Z,36.40
2018-02-25T09:50:53.604Z,37.30
2018-02-25T09:53:21.135Z,36.70
2018-02-25T09:55:48.620Z,36.20
2018-02-25T09:58:16.090Z,34.20
2018-02-25T10:00:43.592Z,34.50
2018-02-25T10:03:11.046Z,34.50
2018-02-25T10:05:38.610Z,34.30
2018-02-25T10:08:06.079Z,35.00
2018-02-25T10:10:33.566Z,34.10
2018-02-25T10:13:01.038Z,33.30
2018-02-25T10:15:28.502Z,33.20
2018-02-25T10:17:55.979Z,33.00
2018-02-25T10:20:24.267Z,33.30
2018-02-25T10:22:52.496Z,33.60
2018-02-25T10:25:19.997Z,33.60
2018-02-25T10:27:48.213Z,32.40
2018-02-25T10:30:15.682Z,32.40
2018-02-25T10:32:43.187Z,30.70
2018-02-25T10:35:10.637Z,31.10
2018-02-25T10:37:38.880Z,29.70
2018-02-25T10:40:06.344Z,29.60
2018-02-25T10:42:33.840Z,29.40
2018-02-25T10:45:01.313Z,29.60
2018-02-25T10:47:28.823Z,30.70
2018-02-25T10:49:56.294Z,30.20
2018-02-25T10:52:23.767Z,29.00
2018-02-25T10:54:52.003Z,28.50
2018-02-25T10:57:19.493Z,28.40
2018-02-25T10:59:47.851Z,30.70
2018-02-25T11:02:15.336Z,30.60
2018-02-25T11:04:43.571Z,31.70
2018-02-25T11:07:11.044Z,31.70
2018-02-25T11:09:38.513Z,30.80
2018-02-25T11:12:05.971Z,29.60
2018-02-25T11:14:33.611Z,30.00
2018-02-25T11:17:01.076Z,30.10
2018-02-25T11:19:28.544Z,29.20
2018-02-25T11:21:56.028Z,29.10
2018-02-25T11:24:24.385Z,28.30
2018-02-25T11:26:51.875Z,28.20
2018-02-25T11:29:20.123Z,28.90
2018-02-25T11:31:47.687Z,28.90
2018-02-25T11:34:15.954Z,29.70
2018-02-25T11:36:44.207Z,29.90
2018-02-25T11:39:11.681Z,29.60
2018-02-25T11:41:39.151Z,29.70
2018-02-25T11:44:07.415Z,29.30
2018-02-25T11:46:34.931Z,29.30
2018-02-25T11:49:02.412Z,28.50
2018-02-25T11:51:29.886Z,28.00
2018-02-25T11:53:57.373Z,28.70
2018-02-25T11:56:25.678Z,28.80
2018-02-25T11:58:53.160Z,28.30
2018-02-25T12:01:20.790Z,27.70
2018-02-25T12:03:49.014Z,29.00
2018-02-25T12:06:16.643Z,29.00
2018-02-25T12:08:44.108Z,27.90
2018-02-25T12:11:11.915Z,28.50
2018-02-25T12:13:40.491Z,28.80
2018-02-25T12:16:07.970Z,28.80
2018-02-25T12:18:35.430Z,29.20
2018-02-25T12:21:04.024Z,29.60
2018-02-25T12:23:32.253Z,29.60
2018-02-25T12:25:59.822Z,29.50
2018-02-25T12:28:27.294Z,31.30
2018-02-25T12:30:55.553Z,29.90
2018-02-25T12:33:23.493Z,29.90
2018-02-25T12:35:51.858Z,30.00
2018-02-25T12:38:20.262Z,29.70
2018-02-25T12:40:47.730Z,29.70
2018-02-25T12:43:15.560Z,28.90
2018-02-25T12:45:43.946Z,28.50
2018-02-25T12:48:11.430Z,29.60
2018-02-25T12:50:38.930Z,30.90
2018-02-25T12:53:06.459Z,32.00
2018-02-25T12:55:33.942Z,32.00
2018-02-25T12:58:02.214Z,33.40
2018-02-25T13:00:29.690Z,33.30
2018-02-25T13:02:57.221Z,32.50
2018-02-25T13:05:24.717Z,33.60
2018-02-25T13:07:52.970Z,33.80
2018-02-25T13:10:20.443Z,33.80
2018-02-25T13:12:47.910Z,34.70
2018-02-25T13:15:16.175Z,35.50
2018-02-25T13:17:43.659Z,35.40
2018-02-25T13:20:11.915Z,36.00
2018-02-25T13:22:39.380Z,36.00
2018-02-25T13:25:07.622Z,34.20
2018-02-25T13:27:35.091Z,34.20
2018-02-25T13:30:02.630Z,34.40
2018-02-25T13:32:30.101Z,34.50
2018-02-25T13:34:58.587Z,34.40
2018-02-25T13:37:26.084Z,34.80
2018-02-25T13:39:54.307Z,34.50
2018-02-25T13:42:21.807Z,34.40
2018-02-25T13:44:50.089Z,35.00
2018-02-25T13:47:18.537Z,34.10
2018-02-25T13:49:45.934Z,34.10
2018-02-25T13:52:14.170Z,33.40
2018-02-25T13:54:41.708Z,33.40
2018-02-25T13:57:09.328Z,32.90
2018-02-25T13:59:37.582Z,32.80
2018-02-25T14:02:05.844Z,32.30
2018-02-25T14:04:33.319Z,32.30
2018-02-25T14:07:00.829Z,31.70
2018-02-25T14:09:28.303Z,31.40
2018-02-25T14:11:55.776Z,31.30
2018-02-25T14:14:23.272Z,31.10
2018-02-25T14:16:51.567Z,31.50
2018-02-25T14:19:19.865Z,31.60
2018-02-25T14:21:47.350Z,31.60
2018-02-25T14:24:14.941Z,31.30
2018-02-25T14:26:43.190Z,30.70
2018-02-25T14:29:10.702Z,30.30
2018-02-25T14:31:38.176Z,30.20
2018-02-25T14:34:05.651Z,30.20
2018-02-25T14:36:33.117Z,30.50
2018-02-25T14:39:00.601Z,32.20
2018-02-25T14:41:28.186Z,32.10
2018-02-25T14:43:55.716Z,34.70
2018-02-25T14:46:23.189Z,33.80
2018-02-25T14:48:51.449Z,34.10
2018-02-25T14:51:18.919Z,34.10
2018-02-25T14:53:46.392Z,39.00
2018-02-25T14:56:14.619Z,44.80
2018-02-25T14:58:42.076Z,44.80
2018-02-25T15:01:10.027Z,45.50
2018-02-25T15:03:37.771Z,45.90
2018-02-25T15:06:05.237Z,46.90
2018-02-25T15:08:32.722Z,45.70
2018-02-25T15:11:00.795Z,46.80
2018-02-25T15:13:28.840Z,46.50
2018-02-25T15:15:56.333Z,47.20
2018-02-25T15:18:23.808Z,47.30
2018-02-25T15:20:51.356Z,47.50
2018-02-25T15:23:18.823Z,47.80
2018-02-25T15:25:46.479Z,47.20
2018-02-25T15:28:13.966Z,48.30
2018-02-25T15:30:41.456Z,48.90
2018-02-25T15:33:08.945Z,48.20
2018-02-25T15:35:36.430Z,48.50
2018-02-25T15:38:03.883Z,49.50
2018-02-25T15:40:31.378Z,49.00
2018-02-25T15:42:59.611Z,48.80
2018-02-25T15:45:27.087Z,48.80
2018-02-25T15:47:54.587Z,49.10
2018-02-25T15:50:22.164Z,50.10
2018-02-25T15:52:49.644Z,50.60
2018-02-25T15:55:17.237Z,49.60
2018-02-25T15:57:45.493Z,51.70
2018-02-25T16:00:12.956Z,51.10
2018-02-25T16:02:40.438Z,50.80
2018-02-25T16:05:08.143Z,50.80
2018-02-25T16:07:35.642Z,51.50
2018-02-25T16:10:03.181Z,51.40
2018-02-25T16:12:30.651Z,50.00
2018-02-25T16:14:58.895Z,51.50
2018-02-25T16:17:26.394Z,51.60
2018-02-25T16:19:53.855Z,51.60
2018-02-25T16:22:21.483Z,51.50
2018-02-25T16:24:49.009Z,52.00
2018-02-25T16:27:17.562Z,51.60
2018-02-25T16:29:45.241Z,51.80
2018-02-25T16:32:13.479Z,53.20
2018-02-25T16:34:40.966Z,53.30
2018-02-25T16:37:09.212Z,54.40
2018-02-25T16:39:36.700Z,54.40
2018-02-25T16:42:04.476Z,54.30
2018-02-25T16:44:31.986Z,55.60
2018-02-25T16:46:59.516Z,56.30
2018-02-25T16:49:27.230Z,56.00
2018-02-25T16:51:54.726Z,55.90
2018-02-25T16:54:22.978Z,55.50
2018-02-25T16:56:50.454Z,55.40
2018-02-25T16:59:18.715Z,57.70
2018-02-25T17:01:46.192Z,57.70
2018-02-25T17:04:15.306Z,58.50
2018-02-25T17:06:42.780Z,58.50
2018-02-25T17:09:11.144Z,59.00
2018-02-25T17:11:38.801Z,59.40
2018-02-25T17:14:06.294Z,60.00
2018-02-25T17:16:33.781Z,61.30
2018-02-25T17:19:01.296Z,61.40
2018-02-25T17:21:29.025Z,62.80
2018-02-25T17:23:57.271Z,65.50
2018-02-25T17:26:25.246Z,65.50
2018-02-25T17:28:52.721Z,66.00
2018-02-25T17:31:20.952Z,67.00
2018-02-25T17:33:48.678Z,67.30
2018-02-25T17:36:16.149Z,67.10
2018-02-25T17:38:43.680Z,68.20
2018-02-25T17:41:11.555Z,68.00
2018-02-25T17:43:39.821Z,71.80
2018-02-25T17:46:08.094Z,72.20
2018-02-25T17:48:35.624Z,72.70
2018-02-25T17:51:03.995Z,76.10
2018-02-25T17:53:31.496Z,78.50
2018-02-25T17:55:58.983Z,79.50
2018-02-25T17:58:26.473Z,80.60
2018-02-25T18:00:53.978Z,81.90
2018-02-25T18:03:22.262Z,84.50
2018-02-25T18:05:50.492Z,84.40
2018-02-25T18:08:18.011Z,84.70
2018-02-25T18:10:45.489Z,87.10
2018-02-25T18:13:12.972Z,88.10
2018-02-25T18:15:40.493Z,88.90
2018-02-25T18:18:08.496Z,90.40
2018-02-25T18:20:36.776Z,91.90
2018-02-25T18:23:04.419Z,92.00
2018-02-25T18:25:31.896Z,90.80
2018-02-25T18:27:59.365Z,91.40
2018-02-25T18:30:26.838Z,92.20
2018-02-25T18:32:54.366Z,92.50
2018-02-25T18:35:21.852Z,93.30
2018-02-25T18:37:50.850Z,94.00
2018-02-25T18:40:19.139Z,93.90
2018-02-25T18:42:47.430Z,94.20
2018-02-25T18:45:15.737Z,95.20
2018-02-25T18:47:43.966Z,95.70
2018-02-25T18:50:11.459Z,95.70
2018-02-25T18:52:38.941Z,95.70
2018-02-25T18:55:06.424Z,95.90
2018-02-25T18:57:33.893Z,96.60
2018-02-25T19:00:02.253Z,96.70
2018-02-25T19:02:29.747Z,96.70
2018-02-25T19:04:57.995Z,96.90
2018-02-25T19:07:26.269Z,96.90
2018-02-25T19:09:54.646Z,96.80
2018-02-25T19:12:22.131Z,96.80
2018-02-25T19:14:50.394Z,97.30
2018-02-25T19:17:17.884Z,97.30
2018-02-25T19:19:46.123Z,97.10
2018-02-25T19:22:13.699Z,97.10
2018-02-25T19:24:41.176Z,97.00
2018-02-25T19:27:08.650Z,97.40
2018-02-25T19:29:36.758Z,97.50
2018-02-25T19:32:05.024Z,97.80
2018-02-25T19:34:32.525Z,97.50
2018-02-25T19:37:05.904Z,97.30
2018-02-25T19:39:38.992Z,98.30
2018-02-25T19:42:13.459Z,98.30
2018-02-25T19:44:40.953Z,98.50
2018-02-25T19:47:08.437Z,99.10
2018-02-25T19:49:35.929Z,99.40
2018-02-25T19:52:04.171Z,99.60
2018-02-25T19:54:31.743Z,99.60
2018-02-25T19:56:59.426Z,99.40
2018-02-25T19:59:28.240Z,99.80
2018-02-25T20:01:56.686Z,99.70
2018-02-25T20:04:24.513Z,99.60
2018-02-25T20:06:52.120Z,99.10
2018-02-25T20:09:20.391Z,99.20
2018-02-25T20:11:48.202Z,99.30
2018-02-25T20:14:15.704Z,99.40
2018-02-25T20:16:43.414Z,99.60
2018-02-25T20:19:10.947Z,99.50
2018-02-25T20:21:38.838Z,99.60
2018-02-25T20:24:07.313Z,97.30
2018-02-25T20:26:34.912Z,97.30
2018-02-25T20:29:02.375Z,96.70
2018-02-25T20:31:30.100Z,93.40
2018-02-25T20:33:59.062Z,93.20
2018-02-25T20:36:26.606Z,93.10
2018-02-25T20:38:54.313Z,92.70
2018-02-25T20:41:23.610Z,91.40
2018-02-25T20:43:51.172Z,91.40
2018-02-25T20:46:18.650Z,91.50
2018-02-25T20:48:46.944Z,91.40
2018-02-25T20:51:14.617Z,91.40
2018-02-25T20:53:42.276Z,91.90
2018-02-25T20:56:10.883Z,91.80
2018-02-25T20:58:38.380Z,92.50
2018-02-25T21:01:05.866Z,93.50
2018-02-25T21:03:33.823Z,93.50
2018-02-25T21:06:01.471Z,93.50
2018-02-25T21:08:31.460Z,94.50
2018-02-25T21:10:58.948Z,95.10
2018-02-25T21:13:26.557Z,95.60
2018-02-25T21:15:56.222Z,96.90
2018-02-25T21:18:23.989Z,98.80
2018-02-25T21:20:51.624Z,99.90
2018-02-25T21:23:19.136Z,99.90
2018-02-25T21:25:46.612Z,99.90
2018-02-25T21:28:14.249Z,99.90
2018-02-25T21:30:41.738Z,99.90
2018-02-25T21:33:09.229Z,99.90
2018-02-25T21:35:37.345Z,99.90
2018-02-25T21:38:04.887Z,99.90
2018-02-25T21:40:33.117Z,99.90
2018-02-25T21:43:00.589Z,99.90
2018-02-25T21:45:28.084Z,99.90
2018-02-25T21:47:55.742Z,99.90
2018-02-25T21:50:23.266Z,99.90
2018-02-25T21:52:51.404Z,99.90
2018-02-25T21:55:18.884Z,99.90
2018-02-25T21:57:51.963Z,99.90
2018-02-25T22:00:25.145Z,99.90
2018-02-25T22:02:58.390Z,99.90
2018-02-25T22:05:25.868Z,99.90
2018-02-25T22:07:54.098Z,99.90
2018-02-25T22:10:21.731Z,99.90
2018-02-25T22:12:49.209Z,99.90
2018-02-25T22:15:16.712Z,99.90
2018-02-25T22:17:44.803Z,99.90
2018-02-25T22:20:12.841Z,99.90
2018-02-25T22:22:40.381Z,99.90
2018-02-25T22:25:07.858Z,99.90
2018-02-25T22:27:35.479Z,99.90
2018-02-25T22:30:02.929Z,99.90
2018-02-25T22:32:30.400Z,99.90
2018-02-25T22:34:57.905Z,99.90
2018-02-25T22:37:25.378Z,99.90
2018-02-25T22:39:52.875Z,99.90
2018-02-25T22:42:20.394Z,99.90
2018-02-25T22:44:47.864Z,99.90
2018-02-25T22:47:16.107Z,99.90
2018-02-25T22:49:43.590Z,99.90
2018-02-25T22:52:11.076Z,99.90
2018-02-25T22:54:38.530Z,99.90
2018-02-25T22:57:06.778Z,99.90
2018-02-25T22:59:34.246Z,99.90
2018-02-25T23:02:02.517Z,99.90
2018-02-25T23:04:30.757Z,99.90
2018-02-25T23:06:58.274Z,99.90
2018-02-25T23:09:26.534Z,99.90
2018-02-25T23:11:54.785Z,99.90
2018-02-25T23:14:22.301Z,99.90
2018-02-25T23:16:49.775Z,99.90
2018-02-25T23:19:17.273Z,99.90
2018-02-25T23:21:44.747Z,99.90
2018-02-25T23:24:12.219Z,99.90
2018-02-25T23:26:40.456Z,99.90
2018-02-25T23:29:07.937Z,99.90
2018-02-25T23:31:35.415Z,99.90
2018-02-25T23:34:03.642Z,99.90
2018-02-25T23:36:31.143Z,99.90
2018-02-25T23:38:59.399Z,99.90
2018-02-25T23:41:26.914Z,99.90
2018-02-25T23:43:54.400Z,99.90
2018-02-25T23:46:21.875Z,99.90
2018-02-25T23:48:49.358Z,99.90
2018-02-25T23:51:17.608Z,99.90
2018-02-25T23:53:45.083Z,99.90
2018-02-25T23:56:13.322Z,99.90
2018-02-25T23:58:40.821Z,99.90
